Time;durP1;ratioP1;P1;durP2;ratioP2;P2;SDS_P1;SDS_P2;PMS_P1;PMS_P2;Temp;Humidity;BMP_temperature;BMP_pressure;BME280_temperature;BME280_humidity;BME280_pressure;Samples;Min_cycle;Max_cycle;Signal;HPM_P1;HPM_P2
2022/08/16 00:01:57;;;;;;;7.5;12;;;;;;;17.7;100;97760;;;;
2022/08/16 00:11:57;;;;;;;7.8;14;;;;;;;17.6;100;97760;;;;
2022/08/16 00:21:57;;;;;;;7.8;14;;;;;;;17.5;100;97760;;;;
2022/08/16 00:32:57;;;;;;;7.8;14;;;;;;;17.2;100;97760;;;;
2022/08/16 00:42:57;;;;;;;8.1;12.2;;;;;;;17.2;100;97750;;;;
2022/08/16 00:53:57;;;;;;;8.1;12.2;;;;;;;17.2;100;97750;;;;
2022/08/16 01:03:57;;;;;;;8.1;12.2;;;;;;;17.1;100;97760;;;;
2022/08/16 01:14:57;;;;;;;8.2;11.5;;;;;;;17;100;97770;;;;
2022/08/16 01:24:57;;;;;;;8.2;11.5;;;;;;;17;100;97760;;;;
2022/08/16 01:35:58;;;;;;;7.4;10.3;;;;;;;16.9;100;97760;;;;
2022/08/16 01:46:58;;;;;;;7.4;10.3;;;;;;;16.9;100;97760;;;;
2022/08/16 01:57:57;;;;;;;7.4;10.3;;;;;;;16.8;100;97760;;;;
2022/08/16 02:07:57;;;;;;;7.9;12;;;;;;;16.8;100;97770;;;;
2022/08/16 02:17:57;;;;;;;7.9;12;;;;;;;16.7;100;97770;;;;
2022/08/16 02:28:58;;;;;;;7.9;12;;;;;;;16.6;100;97760;;;;
2022/08/16 02:38:57;;;;;;;8;10.6;;;;;;;16.5;100;97760;;;;
2022/08/16 02:48:57;;;;;;;8;10.6;;;;;;;16.3;100;97760;;;;
2022/08/16 02:58:57;;;;;;;8;10.6;;;;;;;16.4;100;97770;;;;
2022/08/16 03:09:58;;;;;;;8.6;12.2;;;;;;;16.2;100;97770;;;;
2022/08/16 03:19:57;;;;;;;8.6;12.2;;;;;;;16.1;100;97770;;;;
2022/08/16 03:30:57;;;;;;;8.6;12.2;;;;;;;16;100;97770;;;;
2022/08/16 03:40:58;;;;;;;8.5;13.3;;;;;;;16.1;100;97780;;;;
2022/08/16 03:50:57;;;;;;;8.5;13.3;;;;;;;16.1;100;97790;;;;
2022/08/16 04:01:57;;;;;;;8.5;13.3;;;;;;;15.9;100;97800;;;;
2022/08/16 04:11:57;;;;;;;8.4;10.3;;;;;;;15.9;100;97800;;;;
2022/08/16 04:21:57;;;;;;;8.4;10.3;;;;;;;16.1;100;97810;;;;
2022/08/16 04:31:57;;;;;;;8.4;10.3;;;;;;;16.1;100;97820;;;;
2022/08/16 04:41:58;;;;;;;8.5;12.2;;;;;;;16.2;100;97810;;;;
2022/08/16 04:52:58;;;;;;;8.5;12.2;;;;;;;16.3;100;97810;;;;
2022/08/16 05:03:58;;;;;;;8.5;12.2;;;;;;;16.8;100;97810;;;;
2022/08/16 05:14:00;;;;;;;8.4;12.8;;;;;;;17.2;100;97820;;;;
2022/08/16 05:24:57;;;;;;;8.4;12.8;;;;;;;17.7;100;97830;;;;
2022/08/16 05:34:57;;;;;;;7.5;10.7;;;;;;;18.3;100;97840;;;;
2022/08/16 05:45:58;;;;;;;7.5;10.7;;;;;;;18.9;100;97850;;;;
2022/08/16 05:56:58;;;;;;;7.5;10.7;;;;;;;19.2;100;97850;;;;
2022/08/16 06:07:58;;;;;;;7.4;13.3;;;;;;;19.5;100;97850;;;;
2022/08/16 06:17:58;;;;;;;7.4;13.3;;;;;;;20.1;100;97850;;;;
2022/08/16 06:27:58;;;;;;;7.4;13.3;;;;;;;20.3;100;97870;;;;
2022/08/16 06:37:58;;;;;;;7.1;9.8;;;;;;;20.7;100;97870;;;;
2022/08/16 06:47:58;;;;;;;7.1;9.8;;;;;;;21.1;100;97880;;;;
2022/08/16 06:58:58;;;;;;;7.1;9.8;;;;;;;21.5;100;97880;;;;
2022/08/16 07:08:58;;;;;;;6.2;9.3;;;;;;;21.4;100;97890;;;;
2022/08/16 07:19:58;;;;;;;6.2;9.3;;;;;;;21.6;100;97900;;;;
2022/08/16 07:30:58;;;;;;;6.2;9.3;;;;;;;21.8;100;97920;;;;
2022/08/16 07:41:58;;;;;;;6.5;10.9;;;;;;;22.4;100;97910;;;;
2022/08/16 07:52:58;;;;;;;6.5;10.9;;;;;;;22.8;100;97920;;;;
2022/08/16 08:03:58;;;;;;;6.5;10.9;;;;;;;23.5;100;97910;;;;
2022/08/16 08:15:30;;;;;;;6.1;8.6;;;;;;;23.9;100;97920;;;;
2022/08/16 08:25:58;;;;;;;6.1;8.6;;;;;;;24.7;100;97910;;;;
2022/08/16 08:36:58;;;;;;;6.2;11.1;;;;;;;25.2;100;97920;;;;
2022/08/16 08:46:58;;;;;;;6.2;11.1;;;;;;;26.1;100;97920;;;;
2022/08/16 08:56:58;;;;;;;6.2;11.1;;;;;;;26;100;97930;;;;
2022/08/16 09:07:58;;;;;;;5.3;9.1;;;;;;;26.8;100;97950;;;;
2022/08/16 09:17:58;;;;;;;5.3;9.1;;;;;;;27.4;100;97950;;;;
2022/08/16 09:27:58;;;;;;;5.3;9.1;;;;;;;27.9;100;97940;;;;
2022/08/16 09:38:58;;;;;;;5.7;10.8;;;;;;;27.9;100;97940;;;;
2022/08/16 09:49:58;;;;;;;5.7;10.8;;;;;;;28.1;100;97940;;;;
2022/08/16 09:59:59;;;;;;;5.7;10.8;;;;;;;28.5;100;97940;;;;
2022/08/16 10:09:58;;;;;;;5.5;9.2;;;;;;;28.4;100;97940;;;;
2022/08/16 10:20:58;;;;;;;5.5;9.2;;;;;;;28.1;100;97950;;;;
2022/08/16 10:30:58;;;;;;;5.5;9.2;;;;;;;28.5;100;97960;;;;
2022/08/16 10:40:58;;;;;;;5.6;10.1;;;;;;;28.6;100;97950;;;;
2022/08/16 10:51:58;;;;;;;5.6;10.1;;;;;;;28.6;100;97940;;;;
2022/08/16 11:01:58;;;;;;;5.6;10.1;;;;;;;28.7;100;97930;;;;
2022/08/16 11:12:58;;;;;;;5.7;9.9;;;;;;;28.9;100;97900;;;;
2022/08/16 11:22:58;;;;;;;5.7;9.9;;;;;;;29.4;100;97910;;;;
2022/08/16 11:33:00;;;;;;;5.7;9.9;;;;;;;29.4;100;97910;;;;
2022/08/16 11:42:58;;;;;;;6.1;9.7;;;;;;;29.3;100;97910;;;;
2022/08/16 11:53:58;;;;;;;6.1;9.7;;;;;;;30.1;100;97900;;;;
2022/08/16 12:04:58;;;;;;;5.3;8.5;;;;;;;30.9;100;97870;;;;
2022/08/16 12:14:58;;;;;;;5.3;8.5;;;;;;;31.6;97.6;97870;;;;
2022/08/16 12:25:58;;;;;;;5.3;8.5;;;;;;;31.1;100;97860;;;;
2022/08/16 12:35:58;;;;;;;7;10.2;;;;;;;28.9;100;97900;;;;
2022/08/16 12:45:58;;;;;;;7;10.2;;;;;;;28.2;100;97890;;;;
2022/08/16 12:56:58;;;;;;;7;10.2;;;;;;;27.4;100;97900;;;;
2022/08/16 13:06:58;;;;;;;5;8.4;;;;;;;26.8;100;97890;;;;
2022/08/16 13:16:58;;;;;;;5;8.4;;;;;;;26;100;97880;;;;
2022/08/16 13:27:58;;;;;;;5;8.4;;;;;;;26;100;97880;;;;
2022/08/16 13:38:58;;;;;;;5.5;9.1;;;;;;;25.9;100;97890;;;;
2022/08/16 13:48:58;;;;;;;5.5;9.1;;;;;;;26.2;100;97890;;;;
2022/08/16 13:59:58;;;;;;;5.5;9.1;;;;;;;26.5;100;97890;;;;
2022/08/16 14:10:58;;;;;;;5.9;11.7;;;;;;;26.9;100;97870;;;;
2022/08/16 14:21:58;;;;;;;5.9;11.7;;;;;;;27.7;100;97860;;;;
2022/08/16 14:31:58;;;;;;;5.9;11.7;;;;;;;28.8;100;97880;;;;
2022/08/16 14:41:58;;;;;;;5.9;11.7;;;;;;;29.5;100;97900;;;;
2022/08/16 14:52:58;;;;;;;5.9;11.7;;;;;;;29.8;100;97890;;;;
2022/08/16 15:02:58;;;;;;;5.9;11.7;;;;;;;30;100;97880;;;;
2022/08/16 15:12:59;;;;;;;6.5;10;;;;;;;30.3;100;97890;;;;
2022/08/16 15:23:58;;;;;;;6.5;10;;;;;;;29.7;100;97900;;;;
2022/08/16 15:34:58;;;;;;;6.5;10;;;;;;;29.4;100;97910;;;;
2022/08/16 15:44:58;;;;;;;5.9;10.8;;;;;;;29.6;100;97930;;;;
2022/08/16 15:55:58;;;;;;;5.9;10.8;;;;;;;28.8;100;97920;;;;
2022/08/16 16:06:58;;;;;;;6.4;10.6;;;;;;;28.6;100;97930;;;;
2022/08/16 16:16:59;;;;;;;6.4;10.6;;;;;;;29.2;100;97940;;;;
2022/08/16 16:26:58;;;;;;;6.4;10.6;;;;;;;29.3;100;97920;;;;
2022/08/16 16:37:58;;;;;;;5.7;8.5;;;;;;;28.9;100;97920;;;;
2022/08/16 16:47:58;;;;;;;5.7;8.5;;;;;;;28.4;100;97920;;;;
2022/08/16 16:58:56;;;;;;;5.7;8.5;;;;;;;28.1;100;97930;;;;
2022/08/16 17:07:58;;;;;;;5.7;9.2;;;;;;;27.7;100;97940;;;;
2022/08/16 17:19:01;;;;;;;5.7;9.2;;;;;;;27.3;100;97940;;;;
2022/08/16 17:28:58;;;;;;;5.7;9.2;;;;;;;26.9;100;97950;;;;
2022/08/16 17:39:59;;;;;;;6.6;10.7;;;;;;;26.6;100;97960;;;;
2022/08/16 17:50:58;;;;;;;6.6;10.7;;;;;;;26;100;97970;;;;
2022/08/16 18:01:58;;;;;;;6.6;10.7;;;;;;;25.5;100;97960;;;;
2022/08/16 18:11:58;;;;;;;7;10.7;;;;;;;24.9;100;97960;;;;
2022/08/16 18:22:30;;;;;;;7;10.7;;;;;;;24.2;100;97960;;;;
2022/08/16 18:31:58;;;;;;;7;10.7;;;;;;;23.7;100;97960;;;;
2022/08/16 18:42:58;;;;;;;8.5;13.4;;;;;;;23.2;100;97960;;;;
2022/08/16 18:52:58;;;;;;;8.5;13.4;;;;;;;22.9;100;97970;;;;
2022/08/16 19:03:58;;;;;;;8.5;13.4;;;;;;;22.5;100;97980;;;;
2022/08/16 19:14:58;;;;;;;8.8;13;;;;;;;22.1;100;97980;;;;
2022/08/16 19:25:58;;;;;;;8.8;13;;;;;;;21.9;100;97980;;;;
2022/08/16 19:35:58;;;;;;;9.6;13.8;;;;;;;21.7;100;97980;;;;
2022/08/16 19:45:58;;;;;;;9.6;13.8;;;;;;;21.5;100;97990;;;;
2022/08/16 19:57:00;;;;;;;9.6;13.8;;;;;;;21.2;100;98010;;;;
2022/08/16 20:07:58;;;;;;;11;14.1;;;;;;;21;100;98020;;;;
2022/08/16 20:17:59;;;;;;;11;14.1;;;;;;;20.8;100;98030;;;;
2022/08/16 20:28:58;;;;;;;11;14.1;;;;;;;20.8;100;98030;;;;
2022/08/16 20:38:59;;;;;;;10.8;16.4;;;;;;;20.7;100;98040;;;;
2022/08/16 20:48:58;;;;;;;10.8;16.4;;;;;;;20.4;100;98040;;;;
2022/08/16 20:59:58;;;;;;;10.8;16.4;;;;;;;20.5;100;98060;;;;
2022/08/16 21:09:59;;;;;;;10.6;15.1;;;;;;;20.5;100;98060;;;;
2022/08/16 21:19:59;;;;;;;10.6;15.1;;;;;;;20.5;100;98060;;;;
2022/08/16 21:30:58;;;;;;;10.6;15.1;;;;;;;20.3;100;98070;;;;
2022/08/16 21:41:58;;;;;;;10.4;12.2;;;;;;;20.1;100;98060;;;;
2022/08/16 21:52:58;;;;;;;10.4;12.2;;;;;;;20;100;98070;;;;
2022/08/16 22:03:00;;;;;;;10.4;12.2;;;;;;;19.9;100;98060;;;;
2022/08/16 22:13:59;;;;;;;10.7;13.3;;;;;;;19.7;100;98040;;;;
2022/08/16 22:23:58;;;;;;;10.7;13.3;;;;;;;19.5;100;98040;;;;
2022/08/16 22:34:00;;;;;;;10.7;13.3;;;;;;;19.5;100;98040;;;;
2022/08/16 22:43:58;;;;;;;10.9;17.5;;;;;;;19.4;100;98040;;;;
2022/08/16 22:54:58;;;;;;;10.9;17.5;;;;;;;19.2;100;98050;;;;
2022/08/16 23:04:58;;;;;;;10.9;17.5;;;;;;;19.1;100;98040;;;;
2022/08/16 23:14:59;;;;;;;11;13.8;;;;;;;19;100;98030;;;;
2022/08/16 23:25:58;;;;;;;11;13.8;;;;;;;18.7;100;98020;;;;
2022/08/16 23:36:58;;;;;;;11.2;13.5;;;;;;;18.8;100;98040;;;;
2022/08/16 23:46:58;;;;;;;11.2;13.5;;;;;;;18.7;100;98040;;;;
2022/08/16 23:57:58;;;;;;;11.2;13.5;;;;;;;18.8;100;98030;;;;
